PH-0129 weather

Petron Megaplaza Heliport
Makati (Manila), Philippines

Public forecast

Using degrees Celsius for public forecast. Weather courtesy of forecast.io.

Closest aviation weather report (METAR) to Petron Megaplaza Heliport

Closest report is Ninoy Aquino International Airport, 3.2 nm (5.9 km) S. Retrieved 2020/08/05 12:00 UTC (35 minutes ago):

RPLL 051200Z AUTO 10009KT 9999 FEW0160/// 29/24 Q1009

Closest aviation forecast (TAF) to Petron Megaplaza Heliport

Closest forecast is Ninoy Aquino International Airport, 3.2 nm (5.9 km) S. Retrieved 2020/08/05 12:33 UTC (2 minutes ago):

TAF RPLL 051100Z 0512/0618 13004KT 9999 FEW022 SCT100 BKN300 TX32/0606Z TN25/0521Z TEMPO 0512/0518 08010KT 7000 -TSRA FEW020CB SCT022 BKN100 TEMPO 0518/0524 10008KT 8000 -SHRA FEW020CB SCT022 BKN100